createdAt,value
2019-04-27T00:00:45.786Z,6.30
2019-04-27T00:03:16.792Z,6.17
2019-04-27T00:05:47.985Z,6.13
2019-04-27T00:08:35.130Z,5.60
2019-04-27T00:11:08.627Z,6.13
2019-04-27T00:13:40.727Z,6.17
2019-04-27T00:16:13.344Z,5.90
2019-04-27T00:18:45.547Z,5.90
2019-04-27T00:21:16.878Z,5.87
2019-04-27T00:23:49.215Z,6.20
2019-04-27T00:26:18.682Z,6.00
2019-04-27T00:28:47.978Z,6.03
2019-04-27T00:31:17.403Z,6.03
2019-04-27T00:33:46.734Z,6.43
2019-04-27T00:36:17.666Z,6.53
2019-04-27T00:38:54.520Z,6.37
2019-04-27T00:41:24.258Z,5.97
2019-04-27T00:43:53.611Z,6.10
2019-04-27T00:46:23.498Z,6.03
2019-04-27T00:48:53.404Z,5.93
2019-04-27T00:51:23.235Z,6.43
2019-04-27T00:53:53.721Z,5.83
2019-04-27T00:56:42.940Z,6.20
2019-04-27T00:59:30.296Z,6.30
2019-04-27T01:02:19.629Z,6.07
2019-04-27T01:04:49.036Z,6.00
2019-04-27T01:07:18.398Z,5.87
2019-04-27T01:09:47.690Z,5.87
2019-04-27T01:12:18.867Z,5.57
2019-04-27T01:14:48.731Z,5.33
2019-04-27T01:17:18.903Z,5.60
2019-04-27T01:19:49.388Z,5.67
2019-04-27T01:22:18.957Z,5.30
2019-04-27T01:24:49.236Z,4.70
2019-04-27T01:27:20.261Z,5.30
2019-04-27T01:29:50.250Z,5.27
2019-04-27T01:32:20.638Z,5.70
2019-04-27T01:34:50.457Z,5.10
2019-04-27T01:37:21.199Z,5.23
2019-04-27T01:39:50.660Z,4.63
2019-04-27T01:42:20.131Z,5.50
2019-04-27T01:44:51.096Z,5.30
2019-04-27T01:47:20.560Z,5.37
2019-04-27T01:49:50.227Z,5.43
2019-04-27T01:52:19.659Z,5.37
2019-04-27T01:54:49.551Z,5.17
2019-04-27T01:57:19.512Z,4.50
2019-04-27T01:59:49.069Z,5.10
2019-04-27T02:02:39.373Z,4.30
2019-04-27T02:05:29.117Z,4.80
2019-04-27T02:07:59.227Z,5.13
2019-04-27T02:10:29.284Z,4.60
2019-04-27T02:12:58.872Z,4.70
2019-04-27T02:15:29.318Z,4.40
2019-04-27T02:17:59.700Z,5.27
2019-04-27T02:20:30.109Z,5.27
2019-04-27T02:23:01.189Z,4.83
2019-04-27T02:25:30.617Z,4.30
2019-04-27T02:28:01.590Z,4.67
2019-04-27T02:30:49.860Z,4.40
2019-04-27T02:33:23.289Z,4.33
2019-04-27T02:35:52.642Z,4.97
2019-04-27T02:38:21.976Z,4.57
2019-04-27T02:40:54.085Z,5.07
2019-04-27T02:43:29.603Z,4.30
2019-04-27T02:46:00.428Z,4.70
2019-04-27T02:48:30.103Z,4.73
2019-04-27T02:51:03.690Z,4.90
2019-04-27T02:53:53.034Z,4.13
2019-04-27T02:56:22.630Z,3.90
2019-04-27T02:58:52.437Z,4.10
2019-04-27T03:01:23.632Z,4.50
2019-04-27T03:03:53.041Z,4.40
2019-04-27T03:06:22.414Z,4.33
2019-04-27T03:08:54.052Z,4.20
2019-04-27T03:11:23.745Z,3.70
2019-04-27T03:14:03.486Z,3.60
2019-04-27T03:16:49.679Z,3.60
2019-04-27T03:19:21.885Z,4.50
2019-04-27T03:21:55.960Z,4.03
2019-04-27T03:24:43.462Z,4.20
2019-04-27T03:27:14.593Z,3.37
2019-04-27T03:29:44.156Z,3.37
2019-04-27T03:32:13.681Z,3.70
2019-04-27T03:34:43.078Z,3.87
2019-04-27T03:37:12.428Z,3.90
2019-04-27T03:39:41.790Z,3.60
2019-04-27T03:42:12.078Z,3.40
2019-04-27T03:44:41.395Z,3.33
2019-04-27T03:47:12.783Z,3.53
2019-04-27T03:49:42.019Z,3.13
2019-04-27T03:52:12.998Z,3.27
2019-04-27T03:54:46.702Z,2.90
2019-04-27T03:57:20.688Z,3.20
2019-04-27T04:00:03.913Z,3.30
2019-04-27T04:02:33.296Z,2.90
2019-04-27T04:05:02.676Z,3.57
2019-04-27T04:07:32.038Z,3.23
2019-04-27T04:10:01.443Z,2.83
2019-04-27T04:12:35.127Z,3.13
2019-04-27T04:15:09.983Z,3.07
2019-04-27T04:17:40.791Z,2.90
2019-04-27T04:20:11.274Z,3.40
2019-04-27T04:22:40.654Z,3.17
2019-04-27T04:25:10.915Z,2.83
2019-04-27T04:27:42.743Z,3.03
2019-04-27T04:30:12.720Z,2.83
2019-04-27T04:32:42.032Z,3.07
2019-04-27T04:35:22.620Z,2.73
2019-04-27T04:37:52.859Z,3.07
2019-04-27T04:40:24.668Z,3.40
2019-04-27T04:43:00.348Z,2.90
2019-04-27T04:45:49.734Z,3.00
2019-04-27T04:48:20.214Z,2.77
2019-04-27T04:50:50.193Z,3.10
2019-04-27T04:53:20.590Z,2.60
2019-04-27T04:55:50.456Z,3.40
2019-04-27T04:58:20.974Z,2.60
2019-04-27T05:00:50.576Z,3.73
2019-04-27T05:03:21.888Z,2.90
2019-04-27T05:05:51.034Z,2.60
2019-04-27T05:08:21.763Z,3.30
2019-04-27T05:10:59.656Z,2.93
2019-04-27T05:13:34.178Z,3.00
2019-04-27T05:16:09.086Z,2.97
2019-04-27T05:18:46.139Z,3.23
2019-04-27T05:21:25.650Z,3.27
2019-04-27T05:24:00.749Z,3.13
2019-04-27T05:26:34.014Z,3.30
2019-04-27T05:29:09.238Z,3.57
2019-04-27T05:31:44.987Z,3.20
2019-04-27T05:34:19.801Z,3.27
2019-04-27T05:36:54.655Z,3.00
2019-04-27T05:39:29.941Z,3.00
2019-04-27T05:42:04.914Z,3.10
2019-04-27T05:44:54.033Z,2.87
2019-04-27T05:47:31.609Z,2.90
2019-04-27T05:50:06.384Z,3.43
2019-04-27T05:52:41.012Z,3.53
2019-04-27T05:55:15.420Z,3.60
2019-04-27T05:57:50.236Z,2.80
2019-04-27T06:00:24.677Z,3.07
2019-04-27T06:02:59.406Z,2.60
2019-04-27T06:05:33.441Z,2.90
2019-04-27T06:08:08.746Z,3.60
2019-04-27T06:10:38.749Z,4.30
2019-04-27T06:13:08.482Z,3.87
2019-04-27T06:15:39.328Z,4.23
2019-04-27T06:18:09.304Z,3.60
2019-04-27T06:20:50.451Z,3.53
2019-04-27T06:23:09.761Z,3.70
2019-04-27T06:25:39.434Z,3.43
2019-04-27T06:28:09.259Z,3.37
2019-04-27T06:30:39.218Z,3.57
2019-04-27T06:33:10.044Z,3.53
2019-04-27T06:35:39.921Z,3.20
2019-04-27T06:38:11.410Z,3.90
2019-04-27T06:40:40.423Z,3.43
2019-04-27T06:43:09.727Z,3.37
2019-04-27T06:45:39.072Z,3.60
2019-04-27T06:48:10.074Z,3.40
2019-04-27T06:50:40.819Z,3.60
2019-04-27T06:53:10.144Z,3.40
2019-04-27T06:55:41.018Z,3.40
2019-04-27T06:58:11.751Z,3.13
2019-04-27T07:00:42.613Z,3.20
2019-04-27T07:03:11.893Z,3.23
2019-04-27T07:05:41.266Z,3.00
2019-04-27T07:08:12.318Z,2.90
2019-04-27T07:10:41.613Z,3.23
2019-04-27T07:13:12.544Z,2.90
2019-04-27T07:15:41.866Z,3.37
2019-04-27T07:18:11.312Z,3.10
2019-04-27T07:20:40.613Z,2.90
2019-04-27T07:23:10.006Z,3.20
2019-04-27T07:25:39.290Z,3.10
2019-04-27T07:28:09.171Z,2.90
2019-04-27T07:30:38.880Z,3.40
2019-04-27T07:33:08.792Z,3.50
2019-04-27T07:35:39.295Z,3.70
2019-04-27T07:38:09.929Z,3.37
2019-04-27T07:40:41.798Z,3.90
2019-04-27T07:43:21.316Z,3.70
2019-04-27T07:45:50.762Z,3.70
2019-04-27T07:48:19.999Z,3.47
2019-04-27T07:50:49.367Z,4.10
2019-04-27T07:53:19.370Z,3.50
2019-04-27T07:55:49.518Z,3.60
2019-04-27T07:58:20.525Z,3.63
2019-04-27T08:00:51.086Z,3.80
2019-04-27T08:03:20.671Z,3.37
2019-04-27T08:05:49.909Z,3.73
2019-04-27T08:08:21.625Z,3.50
2019-04-27T08:10:50.975Z,4.03
2019-04-27T08:13:20.380Z,3.57
2019-04-27T08:15:49.762Z,3.50
2019-04-27T08:18:19.115Z,2.90
2019-04-27T08:20:49.131Z,3.07
2019-04-27T08:23:19.560Z,3.03
2019-04-27T08:25:49.109Z,3.47
2019-04-27T08:28:23.314Z,2.87
2019-04-27T08:31:10.397Z,3.37
2019-04-27T08:33:39.697Z,2.60
2019-04-27T08:36:09.082Z,2.97
2019-04-27T08:38:38.978Z,3.30
2019-04-27T08:41:08.982Z,2.83
2019-04-27T08:43:39.132Z,2.93
2019-04-27T08:46:08.855Z,3.20
2019-04-27T08:48:39.273Z,2.70
2019-04-27T08:51:09.597Z,3.10
2019-04-27T08:53:39.821Z,2.83
2019-04-27T08:56:09.456Z,3.33
2019-04-27T08:58:38.771Z,3.30
2019-04-27T09:01:10.246Z,3.40
2019-04-27T09:03:39.505Z,3.50
2019-04-27T09:06:10.686Z,3.10
2019-04-27T09:08:44.694Z,3.20
2019-04-27T09:11:18.676Z,3.67
2019-04-27T09:13:50.953Z,3.97
2019-04-27T09:16:24.813Z,3.40
2019-04-27T09:18:55.800Z,3.90
2019-04-27T09:21:25.161Z,3.90
2019-04-27T09:23:54.545Z,3.13
2019-04-27T09:26:23.890Z,3.97
2019-04-27T09:28:53.269Z,3.50
2019-04-27T09:31:22.585Z,3.57
2019-04-27T09:33:51.818Z,5.13
2019-04-27T09:36:21.258Z,3.60
2019-04-27T09:38:50.482Z,3.53
2019-04-27T09:41:19.771Z,3.90
2019-04-27T09:43:49.176Z,3.30
2019-04-27T09:46:18.397Z,4.03
2019-04-27T09:48:47.770Z,4.00
2019-04-27T09:51:17.113Z,4.17
2019-04-27T09:53:46.470Z,3.80
2019-04-27T09:56:16.455Z,3.40
2019-04-27T09:58:47.103Z,3.33
2019-04-27T10:01:18.152Z,3.63
2019-04-27T10:03:47.750Z,4.80
2019-04-27T10:06:17.151Z,6.47
2019-04-27T10:08:49.586Z,4.23
2019-04-27T10:11:18.962Z,3.87
2019-04-27T10:13:49.467Z,3.60
2019-04-27T10:16:18.750Z,3.30
2019-04-27T10:18:48.106Z,3.40
2019-04-27T10:21:17.515Z,3.93
2019-04-27T10:23:47.108Z,4.03
2019-04-27T10:26:16.483Z,4.40
2019-04-27T10:28:45.910Z,4.73
2019-04-27T10:31:15.510Z,5.60
2019-04-27T10:33:45.878Z,3.53
2019-04-27T10:36:16.971Z,2.10
2019-04-27T10:38:47.841Z,2.40
2019-04-27T10:41:17.148Z,2.20
2019-04-27T10:43:46.437Z,1.60
2019-04-27T10:46:17.226Z,1.60
2019-04-27T10:48:46.511Z,1.77
2019-04-27T10:51:16.102Z,1.70
2019-04-27T10:53:46.869Z,1.70
2019-04-27T10:56:16.292Z,1.97
2019-04-27T10:58:45.754Z,1.67
2019-04-27T11:01:16.780Z,2.20
2019-04-27T11:04:05.988Z,2.50
2019-04-27T11:06:37.027Z,2.23
2019-04-27T11:09:11.673Z,2.50
2019-04-27T11:11:41.230Z,2.73
2019-04-27T11:14:10.830Z,3.07
2019-04-27T11:16:40.177Z,3.50
2019-04-27T11:19:09.541Z,2.90
2019-04-27T11:21:38.938Z,2.50
2019-04-27T11:24:08.295Z,2.60
2019-04-27T11:26:37.656Z,2.70
2019-04-27T11:29:07.263Z,3.57
2019-04-27T11:31:36.682Z,3.80
2019-04-27T11:34:06.690Z,11.00
2019-04-27T11:36:37.972Z,4.93
2019-04-27T11:39:12.628Z,4.10
2019-04-27T11:41:43.471Z,2.80
2019-04-27T11:44:13.049Z,3.20
2019-04-27T11:46:42.449Z,2.90
2019-04-27T11:49:11.737Z,2.87
2019-04-27T11:51:41.157Z,3.17
2019-04-27T11:54:10.472Z,3.13
2019-04-27T11:56:39.836Z,3.53
2019-04-27T11:59:09.196Z,7.23
2019-04-27T12:01:38.587Z,5.30
2019-04-27T12:04:07.961Z,9.70
2019-04-27T12:06:37.345Z,12.10
2019-04-27T12:09:07.144Z,4.77
2019-04-27T12:11:36.506Z,3.90
2019-04-27T12:14:06.283Z,3.60
2019-04-27T12:16:36.246Z,3.03
2019-04-27T12:19:06.545Z,3.33
2019-04-27T12:21:36.415Z,2.90
2019-04-27T12:24:05.893Z,3.70
2019-04-27T12:26:36.819Z,3.47
2019-04-27T12:29:07.803Z,3.20
2019-04-27T12:31:38.828Z,4.20
2019-04-27T12:34:08.194Z,3.63
2019-04-27T12:36:37.689Z,3.17
2019-04-27T12:39:12.817Z,2.80
2019-04-27T12:41:42.178Z,3.67
2019-04-27T12:44:11.644Z,3.30
2019-04-27T12:46:41.034Z,3.20
2019-04-27T12:49:10.692Z,3.63
2019-04-27T12:51:40.047Z,2.57
2019-04-27T12:54:11.006Z,3.00
2019-04-27T12:56:58.403Z,2.37
2019-04-27T12:59:46.686Z,2.30
2019-04-27T13:02:16.765Z,2.70
2019-04-27T13:04:46.671Z,2.90
2019-04-27T13:07:16.389Z,6.00
2019-04-27T13:09:46.114Z,3.70
2019-04-27T13:12:15.749Z,3.10
2019-04-27T13:14:45.737Z,2.93
2019-04-27T13:17:16.451Z,2.30
2019-04-27T13:19:45.854Z,2.30
2019-04-27T13:22:16.523Z,2.17
2019-04-27T13:24:46.141Z,1.90
2019-04-27T13:27:16.661Z,2.10
2019-04-27T13:29:46.668Z,1.87
2019-04-27T13:32:17.259Z,1.97
2019-04-27T13:34:46.644Z,2.40
2019-04-27T13:37:23.678Z,3.77
2019-04-27T13:40:05.996Z,3.43
2019-04-27T13:42:27.185Z,2.57
2019-04-27T13:44:56.778Z,4.50
2019-04-27T13:47:43.876Z,3.17
2019-04-27T13:50:21.030Z,3.53
2019-04-27T13:52:50.430Z,3.43
2019-04-27T13:55:19.780Z,3.17
2019-04-27T13:57:50.539Z,9.87
2019-04-27T14:00:21.293Z,21.23
2019-04-27T14:02:50.663Z,5.40
2019-04-27T14:05:19.960Z,3.63
2019-04-27T14:07:49.456Z,3.80
2019-04-27T14:10:20.389Z,3.93
2019-04-27T14:12:49.828Z,4.23
2019-04-27T14:15:19.586Z,3.60
2019-04-27T14:17:50.020Z,4.00
2019-04-27T14:20:19.497Z,3.40
2019-04-27T14:22:49.469Z,3.23
2019-04-27T14:25:20.509Z,2.83
2019-04-27T14:27:49.837Z,2.90
2019-04-27T14:30:19.709Z,2.90
2019-04-27T14:32:50.681Z,2.90
2019-04-27T14:35:20.009Z,2.77
2019-04-27T14:37:50.290Z,3.47
2019-04-27T14:40:19.773Z,2.90
2019-04-27T14:42:50.535Z,2.40
2019-04-27T14:45:20.144Z,2.10
2019-04-27T14:47:51.168Z,2.37
2019-04-27T14:50:20.559Z,2.27
2019-04-27T14:52:49.838Z,2.03
2019-04-27T14:55:19.268Z,2.03
2019-04-27T14:57:49.574Z,2.33
2019-04-27T15:00:21.041Z,2.17
2019-04-27T15:02:51.671Z,2.60
2019-04-27T15:05:21.332Z,2.60
2019-04-27T15:07:50.758Z,2.60
2019-04-27T15:10:20.161Z,2.50
2019-04-27T15:12:49.525Z,2.50
2019-04-27T15:15:28.352Z,2.60
2019-04-27T15:17:57.576Z,2.73
2019-04-27T15:20:32.863Z,3.27
2019-04-27T15:23:02.506Z,3.60
2019-04-27T15:25:34.980Z,3.40
2019-04-27T15:28:11.530Z,3.50
2019-04-27T15:30:52.309Z,4.00
2019-04-27T15:33:39.673Z,5.00
2019-04-27T15:36:22.647Z,5.33
2019-04-27T15:38:55.463Z,5.63
2019-04-27T15:41:28.894Z,5.27
2019-04-27T15:44:04.818Z,5.13
2019-04-27T15:46:33.649Z,4.87
2019-04-27T15:49:03.051Z,5.20
2019-04-27T15:51:32.205Z,5.90
2019-04-27T15:54:02.029Z,6.00
2019-04-27T15:56:35.225Z,4.37
2019-04-27T15:59:08.679Z,4.10
2019-04-27T16:01:39.588Z,4.23
2019-04-27T16:04:11.237Z,3.90
2019-04-27T16:06:42.803Z,3.57
2019-04-27T16:09:15.939Z,3.67
2019-04-27T16:11:50.146Z,4.00
2019-04-27T16:14:15.578Z,3.30
2019-04-27T16:16:44.890Z,3.80
2019-04-27T16:19:14.376Z,3.47
2019-04-27T16:21:47.072Z,3.20
2019-04-27T16:24:16.997Z,2.60
2019-04-27T16:26:46.330Z,2.50
2019-04-27T16:29:18.520Z,2.57
2019-04-27T16:31:48.248Z,2.13
2019-04-27T16:34:18.498Z,2.30
2019-04-27T16:36:48.027Z,2.30
2019-04-27T16:39:20.377Z,2.50
2019-04-27T16:41:50.362Z,2.97
2019-04-27T16:44:19.989Z,3.00
2019-04-27T16:46:49.424Z,2.90
2019-04-27T16:49:18.862Z,3.73
2019-04-27T16:51:49.264Z,3.50
2019-04-27T16:54:21.293Z,2.87
2019-04-27T16:57:00.054Z,3.17
2019-04-27T16:59:39.741Z,3.30
2019-04-27T17:01:53.506Z,3.00
2019-04-27T17:04:22.868Z,3.40
2019-04-27T17:06:52.313Z,3.97
2019-04-27T17:09:21.716Z,3.57
2019-04-27T17:11:51.854Z,3.20
2019-04-27T17:14:41.509Z,3.07
2019-04-27T17:17:28.287Z,3.10
2019-04-27T17:19:59.455Z,2.97
2019-04-27T17:22:28.804Z,2.83
2019-04-27T17:24:58.229Z,3.60
2019-04-27T17:27:38.275Z,3.13
2019-04-27T17:30:09.114Z,4.83
2019-04-27T17:32:43.020Z,3.63
2019-04-27T17:35:14.837Z,2.67
2019-04-27T17:37:43.613Z,1.53
2019-04-27T17:40:15.396Z,1.67
2019-04-27T17:42:44.099Z,1.60
2019-04-27T17:45:13.659Z,1.80
2019-04-27T17:47:43.106Z,2.53
2019-04-27T17:50:12.861Z,2.70
2019-04-27T17:52:42.278Z,5.33
2019-04-27T17:55:11.675Z,4.00
2019-04-27T17:57:41.041Z,2.50
2019-04-27T18:00:11.529Z,2.80
2019-04-27T18:02:42.505Z,2.60
2019-04-27T18:05:13.843Z,2.97
2019-04-27T18:07:44.353Z,2.90
2019-04-27T18:10:22.685Z,3.17
2019-04-27T18:12:48.787Z,3.10
2019-04-27T18:15:18.203Z,2.80
2019-04-27T18:17:52.046Z,2.27
2019-04-27T18:20:29.641Z,2.10
2019-04-27T18:23:08.870Z,3.40
2019-04-27T18:25:44.751Z,3.83
2019-04-27T18:28:19.036Z,4.97
2019-04-27T18:30:52.727Z,5.00
2019-04-27T18:33:22.313Z,4.77
2019-04-27T18:35:51.633Z,4.53
2019-04-27T18:38:21.084Z,5.37
2019-04-27T18:40:50.482Z,9.70
2019-04-27T18:43:19.863Z,10.50
2019-04-27T18:45:49.276Z,8.57
2019-04-27T18:48:22.880Z,5.33
2019-04-27T18:51:02.784Z,5.03
2019-04-27T18:53:33.804Z,3.57
2019-04-27T18:56:05.353Z,3.57
2019-04-27T18:58:34.306Z,3.33
2019-04-27T19:01:04.002Z,3.70
2019-04-27T19:03:33.231Z,3.33
2019-04-27T19:06:03.926Z,3.47
2019-04-27T19:08:33.347Z,3.30
2019-04-27T19:11:04.879Z,3.20
2019-04-27T19:13:33.774Z,3.10
2019-04-27T19:16:03.197Z,3.43
2019-04-27T19:18:32.560Z,2.93
2019-04-27T19:21:01.951Z,3.10
2019-04-27T19:23:31.279Z,3.27
2019-04-27T19:26:11.312Z,2.90
2019-04-27T19:28:42.356Z,2.90
2019-04-27T19:31:16.040Z,2.73
2019-04-27T19:33:45.499Z,3.17
2019-04-27T19:36:14.891Z,3.23
2019-04-27T19:38:44.290Z,3.00
2019-04-27T19:41:13.655Z,3.00
2019-04-27T19:43:42.978Z,2.93
2019-04-27T19:46:12.351Z,3.07
2019-04-27T19:48:41.764Z,2.90
2019-04-27T19:51:11.142Z,3.30
2019-04-27T19:53:40.458Z,3.23
2019-04-27T19:56:09.856Z,3.07
2019-04-27T19:58:40.844Z,2.70
2019-04-27T20:01:14.582Z,2.60
2019-04-27T20:03:44.640Z,2.30
2019-04-27T20:06:14.051Z,2.20
2019-04-27T20:08:45.045Z,2.60
2019-04-27T20:11:14.523Z,2.80
2019-04-27T20:13:48.583Z,3.10
2019-04-27T20:16:17.888Z,2.90
2019-04-27T20:18:47.340Z,2.93
2019-04-27T20:21:16.708Z,3.03
2019-04-27T20:23:46.003Z,3.23
2019-04-27T20:26:15.339Z,3.30
2019-04-27T20:28:44.775Z,3.00
2019-04-27T20:31:14.283Z,3.60
2019-04-27T20:33:43.700Z,3.77
2019-04-27T20:36:13.062Z,3.53
2019-04-27T20:38:42.354Z,3.70
2019-04-27T20:41:11.755Z,3.83
2019-04-27T20:43:42.060Z,3.50
2019-04-27T20:46:11.918Z,3.30
2019-04-27T20:48:41.639Z,3.40
2019-04-27T20:51:11.503Z,3.57
2019-04-27T20:53:42.646Z,3.40
2019-04-27T20:56:12.060Z,4.10
2019-04-27T20:58:41.424Z,3.93
2019-04-27T21:01:10.764Z,4.43
2019-04-27T21:03:47.745Z,4.27
2019-04-27T21:06:18.759Z,4.73
2019-04-27T21:08:48.124Z,4.73
2019-04-27T21:11:17.430Z,4.57
2019-04-27T21:13:46.714Z,4.50
2019-04-27T21:16:16.218Z,4.33
2019-04-27T21:18:45.597Z,4.60
2019-04-27T21:21:15.136Z,3.77
2019-04-27T21:23:44.611Z,4.10
2019-04-27T21:26:13.980Z,4.13
2019-04-27T21:28:43.495Z,3.83
2019-04-27T21:31:12.952Z,4.03
2019-04-27T21:33:42.285Z,4.10
2019-04-27T21:36:11.850Z,3.37
2019-04-27T21:38:42.948Z,3.53
2019-04-27T21:41:12.555Z,3.50
2019-04-27T21:43:43.723Z,3.83
2019-04-27T21:46:12.866Z,3.73
2019-04-27T21:48:42.211Z,3.77
2019-04-27T21:51:11.939Z,3.97
2019-04-27T21:53:51.359Z,3.50
2019-04-27T21:56:22.050Z,3.60
2019-04-27T21:58:51.379Z,3.20
2019-04-27T22:01:23.415Z,3.33
2019-04-27T22:03:52.913Z,3.33
2019-04-27T22:06:22.304Z,3.67
2019-04-27T22:08:51.708Z,4.20
2019-04-27T22:11:21.901Z,3.70
2019-04-27T22:13:52.022Z,3.60
2019-04-27T22:16:21.505Z,3.50
2019-04-27T22:18:51.903Z,3.40
2019-04-27T22:21:21.842Z,3.50
2019-04-27T22:23:52.903Z,3.70
2019-04-27T22:26:22.409Z,3.50
2019-04-27T22:28:52.163Z,3.40
2019-04-27T22:31:21.859Z,3.63
2019-04-27T22:33:54.418Z,3.97
2019-04-27T22:36:22.159Z,4.00
2019-04-27T22:38:52.122Z,4.20
2019-04-27T22:41:32.069Z,4.20
2019-04-27T22:44:05.998Z,3.97
2019-04-27T22:46:41.004Z,4.63
2019-04-27T22:49:10.946Z,4.37
2019-04-27T22:51:41.172Z,4.20
2019-04-27T22:54:11.763Z,5.03
2019-04-27T22:56:42.894Z,4.67
2019-04-27T22:59:21.345Z,4.50
2019-04-27T23:01:55.599Z,4.93
2019-04-27T23:04:32.370Z,5.27
2019-04-27T23:07:00.662Z,5.17
2019-04-27T23:09:31.494Z,5.20
2019-04-27T23:12:01.875Z,5.50
2019-04-27T23:14:31.399Z,5.57
2019-04-27T23:17:19.008Z,5.73
2019-04-27T23:19:48.638Z,4.70
2019-04-27T23:22:18.024Z,4.73
2019-04-27T23:24:47.343Z,5.23
2019-04-27T23:27:16.701Z,5.10
2019-04-27T23:29:46.151Z,4.50
2019-04-27T23:32:21.435Z,4.40
2019-04-27T23:34:51.461Z,5.00
2019-04-27T23:37:21.050Z,4.70
2019-04-27T23:39:50.499Z,4.13
2019-04-27T23:42:21.625Z,4.47
2019-04-27T23:44:51.888Z,4.70
2019-04-27T23:47:21.359Z,4.30
2019-04-27T23:49:50.910Z,4.27
2019-04-27T23:52:24.802Z,3.90
2019-04-27T23:54:54.133Z,3.17
2019-04-27T23:57:23.572Z,3.37
2019-04-27T23:59:52.856Z,3.50
